createdAt,value
2023-04-08T00:02:13.169Z,5.22
2023-04-08T00:04:39.596Z,6.55
2023-04-08T00:07:06.201Z,5.60
2023-04-08T00:09:32.531Z,6.38
2023-04-08T00:11:59.107Z,4.25
2023-04-08T00:14:25.435Z,3.55
2023-04-08T00:16:51.827Z,2.88
2023-04-08T00:19:18.300Z,3.13
2023-04-08T00:21:44.595Z,3.60
2023-04-08T00:24:11.035Z,2.63
2023-04-08T00:26:37.845Z,3.03
2023-04-08T00:29:04.138Z,2.45
2023-04-08T00:31:30.449Z,2.40
2023-04-08T00:33:57.683Z,5.40
2023-04-08T00:36:24.061Z,3.47
2023-04-08T00:38:50.784Z,5.05
2023-04-08T00:41:17.660Z,4.72
2023-04-08T00:43:44.003Z,5.03
2023-04-08T00:46:10.813Z,6.30
2023-04-08T00:48:37.170Z,5.50
2023-04-08T00:51:03.622Z,7.35
2023-04-08T00:53:30.804Z,5.90
2023-04-08T00:55:58.063Z,5.68
2023-04-08T00:58:24.382Z,5.80
2023-04-08T01:00:54.054Z,7.03
2023-04-08T01:03:40.853Z,8.07
2023-04-08T01:06:07.393Z,10.55
2023-04-08T01:08:37.369Z,7.53
2023-04-08T01:11:04.863Z,9.15
2023-04-08T01:13:34.001Z,8.90
2023-04-08T01:16:01.076Z,8.70
2023-04-08T01:18:28.231Z,7.78
2023-04-08T01:20:54.767Z,7.40
2023-04-08T01:23:30.220Z,7.88
2023-04-08T01:25:57.064Z,6.63
2023-04-08T01:28:25.031Z,6.70
2023-04-08T01:30:51.611Z,5.05
2023-04-08T01:33:18.815Z,5.43
2023-04-08T01:35:46.126Z,6.40
2023-04-08T01:38:15.253Z,6.63
2023-04-08T01:40:42.178Z,6.32
2023-04-08T01:43:09.808Z,6.78
2023-04-08T01:45:36.347Z,6.63
2023-04-08T01:48:03.773Z,5.97
2023-04-08T01:50:31.212Z,6.65
2023-04-08T01:52:59.072Z,7.15
2023-04-08T01:55:26.170Z,8.32
2023-04-08T01:57:53.558Z,6.85
2023-04-08T02:00:21.061Z,10.40
2023-04-08T02:02:47.919Z,10.27
2023-04-08T02:05:14.887Z,9.85
2023-04-08T02:07:41.438Z,10.90
2023-04-08T02:10:08.112Z,11.45
2023-04-08T02:12:34.530Z,9.38
2023-04-08T02:15:01.258Z,11.15
2023-04-08T02:17:35.683Z,8.95
2023-04-08T02:20:08.227Z,12.48
2023-04-08T02:22:44.800Z,9.95
2023-04-08T02:25:16.108Z,9.65
2023-04-08T02:27:42.881Z,12.55
2023-04-08T02:30:11.113Z,9.60
2023-04-08T02:32:37.877Z,10.93
2023-04-08T02:35:05.527Z,10.98
2023-04-08T02:37:32.208Z,8.50
2023-04-08T02:39:58.701Z,7.25
2023-04-08T02:42:25.051Z,8.70
2023-04-08T02:44:51.483Z,8.77
2023-04-08T02:47:17.919Z,7.72
2023-04-08T02:49:44.261Z,8.43
2023-04-08T02:52:10.592Z,10.00
2023-04-08T02:54:37.092Z,9.02
2023-04-08T02:57:03.427Z,6.88
2023-04-08T02:59:29.773Z,8.43
2023-04-08T03:01:56.454Z,9.00
2023-04-08T03:04:22.843Z,10.38
2023-04-08T03:06:49.134Z,10.75
2023-04-08T03:09:15.854Z,8.43
2023-04-08T03:11:42.200Z,9.07
2023-04-08T03:14:08.493Z,9.68
2023-04-08T03:16:34.894Z,8.98
2023-04-08T03:19:01.277Z,7.25
2023-04-08T03:21:27.710Z,7.32
2023-04-08T03:23:54.056Z,7.60
2023-04-08T03:26:20.954Z,6.72
2023-04-08T03:28:47.600Z,5.88
2023-04-08T03:31:14.255Z,7.20
2023-04-08T03:33:40.936Z,7.60
2023-04-08T03:36:07.520Z,7.57
2023-04-08T03:38:33.803Z,7.43
2023-04-08T03:41:00.237Z,6.30
2023-04-08T03:43:27.667Z,4.93
2023-04-08T03:45:54.073Z,5.72
2023-04-08T03:48:20.798Z,6.45
2023-04-08T03:50:47.175Z,5.97
2023-04-08T03:53:13.525Z,6.05
2023-04-08T03:55:39.924Z,5.18
2023-04-08T03:58:06.510Z,9.13
2023-04-08T04:00:33.029Z,7.43
2023-04-08T04:02:59.528Z,8.23
2023-04-08T04:05:26.015Z,7.25
2023-04-08T04:07:52.407Z,7.80
2023-04-08T04:10:18.799Z,6.00
2023-04-08T04:12:46.089Z,7.38
2023-04-08T04:15:12.416Z,8.23
2023-04-08T04:17:38.803Z,6.15
2023-04-08T04:20:06.378Z,10.65
2023-04-08T04:22:32.748Z,7.05
2023-04-08T04:24:59.072Z,7.45
2023-04-08T04:27:25.447Z,7.38
2023-04-08T04:29:52.234Z,6.25
2023-04-08T04:32:19.462Z,6.55
2023-04-08T04:34:45.951Z,4.38
2023-04-08T04:37:12.382Z,7.85
2023-04-08T04:39:38.875Z,9.07
2023-04-08T04:42:05.399Z,8.70
2023-04-08T04:44:31.686Z,7.95
2023-04-08T04:46:58.081Z,9.90
2023-04-08T04:49:24.928Z,8.38
2023-04-08T04:51:51.348Z,8.63
2023-04-08T04:54:17.739Z,6.93
2023-04-08T04:56:44.041Z,6.88
2023-04-08T04:59:10.580Z,6.47
2023-04-08T05:01:36.950Z,6.30
2023-04-08T05:04:03.480Z,6.72
2023-04-08T05:06:29.899Z,8.40
2023-04-08T05:08:56.229Z,10.10
2023-04-08T05:11:22.639Z,9.20
2023-04-08T05:13:48.998Z,7.15
2023-04-08T05:16:16.585Z,8.80
2023-04-08T05:18:43.119Z,9.35
2023-04-08T05:21:09.454Z,9.75
2023-04-08T05:23:36.012Z,9.10
2023-04-08T05:26:02.565Z,8.35
2023-04-08T05:28:28.906Z,6.55
2023-04-08T05:30:55.557Z,8.73
2023-04-08T05:33:21.937Z,5.22
2023-04-08T05:35:48.291Z,6.22
2023-04-08T05:38:14.683Z,3.75
2023-04-08T05:40:41.587Z,6.82
2023-04-08T05:43:07.903Z,5.38
2023-04-08T05:45:34.260Z,4.25
2023-04-08T05:48:00.706Z,4.55
2023-04-08T05:50:27.210Z,4.15
2023-04-08T05:52:53.522Z,3.35
2023-04-08T05:55:19.863Z,2.67
2023-04-08T05:57:46.242Z,3.78
2023-04-08T06:00:12.802Z,3.63
2023-04-08T06:02:39.387Z,2.97
2023-04-08T06:05:06.519Z,5.95
2023-04-08T06:07:33.192Z,5.43
2023-04-08T06:09:59.557Z,4.30
2023-04-08T06:12:26.192Z,3.67
2023-04-08T06:14:56.200Z,3.95
2023-04-08T06:17:22.641Z,2.90
2023-04-08T06:19:49.046Z,1.98
2023-04-08T06:22:15.677Z,4.18
2023-04-08T06:24:42.008Z,7.10
2023-04-08T06:27:08.484Z,4.88
2023-04-08T06:29:34.880Z,4.32
2023-04-08T06:32:01.482Z,4.22
2023-04-08T06:34:27.864Z,5.03
2023-04-08T06:36:54.241Z,6.63
2023-04-08T06:39:21.568Z,6.07
2023-04-08T06:41:48.180Z,4.80
2023-04-08T06:44:14.543Z,6.97
2023-04-08T06:46:40.945Z,6.30
2023-04-08T06:49:07.815Z,5.15
2023-04-08T06:51:34.282Z,7.72
2023-04-08T06:54:00.657Z,7.10
2023-04-08T06:56:27.056Z,5.75
2023-04-08T06:58:53.533Z,5.53
2023-04-08T07:01:19.917Z,5.70
2023-04-08T07:03:46.417Z,6.72
2023-04-08T07:06:12.848Z,8.63
2023-04-08T07:08:39.398Z,6.35
2023-04-08T07:11:05.806Z,9.38
2023-04-08T07:13:32.172Z,12.75
2023-04-08T07:15:58.517Z,15.68
2023-04-08T07:18:26.265Z,20.40
2023-04-08T07:20:54.077Z,17.30
2023-04-08T07:23:20.642Z,16.08
2023-04-08T07:25:47.766Z,17.67
2023-04-08T07:28:14.216Z,21.13
2023-04-08T07:30:40.697Z,16.35
2023-04-08T07:33:07.266Z,14.13
2023-04-08T07:35:34.212Z,12.18
2023-04-08T07:38:01.067Z,13.38
2023-04-08T07:40:27.676Z,12.57
2023-04-08T07:42:54.377Z,13.00
2023-04-08T07:45:21.049Z,13.95
2023-04-08T07:47:47.532Z,12.25
2023-04-08T07:50:14.205Z,10.02
2023-04-08T07:52:40.628Z,10.93
2023-04-08T07:55:07.224Z,15.23
2023-04-08T07:57:33.629Z,14.88
2023-04-08T08:00:00.391Z,15.20
2023-04-08T08:02:26.846Z,19.15
2023-04-08T08:04:53.401Z,17.00
2023-04-08T08:07:19.722Z,27.25
2023-04-08T08:09:46.043Z,17.13
2023-04-08T08:12:12.365Z,18.23
2023-04-08T08:14:38.682Z,16.90
2023-04-08T08:17:05.044Z,14.27
2023-04-08T08:19:31.442Z,15.65
2023-04-08T08:21:58.037Z,12.40
2023-04-08T08:24:25.857Z,13.20
2023-04-08T08:26:52.219Z,11.43
2023-04-08T08:29:18.547Z,11.75
2023-04-08T08:31:44.941Z,16.55
2023-04-08T08:34:11.427Z,16.60
2023-04-08T08:36:37.757Z,12.68
2023-04-08T08:39:04.195Z,11.70
2023-04-08T08:41:35.301Z,11.02
2023-04-08T08:44:02.329Z,11.97
2023-04-08T08:46:29.097Z,11.65
2023-04-08T08:48:55.667Z,11.70
2023-04-08T08:51:22.088Z,9.35
2023-04-08T08:53:48.485Z,11.80
2023-04-08T08:56:17.966Z,10.93
2023-04-08T08:58:44.943Z,9.00
2023-04-08T09:01:34.447Z,8.05
2023-04-08T09:04:07.089Z,9.63
2023-04-08T09:06:33.644Z,7.55
2023-04-08T09:09:00.106Z,13.68
2023-04-08T09:11:26.449Z,12.40
2023-04-08T09:13:52.911Z,10.32
2023-04-08T09:16:19.940Z,11.25
2023-04-08T09:18:47.508Z,7.75
2023-04-08T09:21:14.602Z,13.25
2023-04-08T09:23:51.281Z,15.38
2023-04-08T09:26:19.657Z,9.77
2023-04-08T09:28:58.652Z,13.30
2023-04-08T09:31:26.308Z,16.65
2023-04-08T09:33:53.460Z,14.55
2023-04-08T09:36:19.870Z,14.10
2023-04-08T09:38:46.962Z,12.13
2023-04-08T09:41:17.488Z,15.40
2023-04-08T09:43:49.407Z,14.07
2023-04-08T09:46:18.224Z,11.77
2023-04-08T09:49:02.668Z,14.57
2023-04-08T09:51:32.435Z,10.55
2023-04-08T09:54:03.065Z,14.80
2023-04-08T09:56:31.740Z,12.07
2023-04-08T09:58:59.733Z,14.57
2023-04-08T10:01:32.528Z,14.27
2023-04-08T10:04:00.774Z,12.25
2023-04-08T10:06:28.552Z,13.10
2023-04-08T10:08:56.316Z,9.07
2023-04-08T10:11:23.124Z,7.78
2023-04-08T10:13:49.687Z,8.70
2023-04-08T10:16:22.142Z,9.35
2023-04-08T10:18:51.021Z,9.35
2023-04-08T10:21:37.236Z,8.55
2023-04-08T10:24:06.668Z,12.68
2023-04-08T10:26:34.646Z,11.20
2023-04-08T10:29:19.588Z,12.93
2023-04-08T10:31:47.109Z,12.18
2023-04-08T10:34:20.418Z,13.25
2023-04-08T10:36:47.387Z,14.27
2023-04-08T10:39:14.480Z,12.52
2023-04-08T10:41:42.586Z,11.27
2023-04-08T10:44:22.455Z,10.73
2023-04-08T10:46:50.375Z,9.65
2023-04-08T10:49:17.588Z,11.18
2023-04-08T10:51:44.467Z,13.70
2023-04-08T10:54:12.546Z,11.80
2023-04-08T10:56:48.635Z,9.52
2023-04-08T10:59:20.175Z,9.73
2023-04-08T11:01:46.806Z,10.00
2023-04-08T11:04:19.354Z,8.57
2023-04-08T11:06:47.334Z,7.32
2023-04-08T11:09:14.652Z,8.95
2023-04-08T11:11:44.424Z,11.00
2023-04-08T11:14:11.018Z,11.18
2023-04-08T11:16:38.244Z,10.23
2023-04-08T11:19:05.546Z,7.95
2023-04-08T11:21:32.685Z,9.02
2023-04-08T11:23:58.974Z,8.95
2023-04-08T11:26:25.647Z,9.82
2023-04-08T11:28:54.203Z,9.38
2023-04-08T11:31:24.633Z,7.57
2023-04-08T11:33:53.460Z,6.78
2023-04-08T11:36:21.670Z,7.57
2023-04-08T11:38:48.062Z,7.90
2023-04-08T11:41:14.391Z,8.60
2023-04-08T11:43:50.686Z,8.85
2023-04-08T11:46:17.201Z,7.07
2023-04-08T11:48:57.027Z,7.47
2023-04-08T11:51:23.916Z,7.75
2023-04-08T11:53:53.335Z,8.93
2023-04-08T11:56:22.349Z,8.20
2023-04-08T11:58:49.102Z,7.38
2023-04-08T12:01:15.957Z,10.45
2023-04-08T12:03:56.182Z,8.88
2023-04-08T12:06:23.450Z,9.95
2023-04-08T12:08:49.961Z,11.02
2023-04-08T12:11:19.926Z,9.77
2023-04-08T12:13:46.664Z,7.65
2023-04-08T12:16:14.145Z,6.93
2023-04-08T12:18:40.833Z,8.93
2023-04-08T12:21:07.259Z,7.05
2023-04-08T12:23:33.602Z,9.77
2023-04-08T12:26:00.041Z,6.32
2023-04-08T12:28:26.469Z,6.95
2023-04-08T12:30:53.276Z,4.70
2023-04-08T12:33:19.628Z,6.57
2023-04-08T12:35:46.117Z,5.50
2023-04-08T12:38:12.806Z,9.00
2023-04-08T12:40:39.182Z,7.80
2023-04-08T12:43:05.615Z,7.35
2023-04-08T12:45:32.423Z,6.63
2023-04-08T12:47:58.814Z,8.55
2023-04-08T12:50:25.247Z,7.32
2023-04-08T12:52:51.720Z,5.97
2023-04-08T12:55:19.074Z,8.15
2023-04-08T12:57:45.393Z,8.23
2023-04-08T13:00:12.096Z,7.05
2023-04-08T13:02:38.468Z,6.57
2023-04-08T13:05:05.014Z,4.57
2023-04-08T13:07:31.363Z,5.85
2023-04-08T13:09:57.739Z,8.25
2023-04-08T13:12:24.163Z,8.13
2023-04-08T13:14:50.709Z,6.40
2023-04-08T13:17:17.111Z,5.80
2023-04-08T13:19:43.650Z,5.53
2023-04-08T13:22:10.078Z,6.32
2023-04-08T13:24:36.442Z,6.80
2023-04-08T13:27:03.576Z,5.45
2023-04-08T13:29:29.951Z,8.45
2023-04-08T13:31:56.390Z,4.32
2023-04-08T13:34:22.770Z,4.93
2023-04-08T13:36:49.145Z,3.97
2023-04-08T13:39:15.441Z,4.63
2023-04-08T13:41:41.773Z,2.20
2023-04-08T13:44:08.080Z,2.53
2023-04-08T13:46:34.460Z,7.40
2023-04-08T13:49:00.784Z,5.80
2023-04-08T13:51:27.355Z,5.25
2023-04-08T13:53:53.797Z,5.75
2023-04-08T13:56:20.926Z,4.85
2023-04-08T13:58:55.137Z,6.25
2023-04-08T14:01:23.446Z,5.20
2023-04-08T14:03:50.029Z,2.85
2023-04-08T14:06:16.528Z,6.47
2023-04-08T14:08:42.868Z,6.40
2023-04-08T14:11:09.147Z,7.13
2023-04-08T14:13:35.578Z,6.28
2023-04-08T14:16:02.961Z,6.30
2023-04-08T14:18:29.435Z,5.65
2023-04-08T14:20:56.328Z,5.43
2023-04-08T14:23:22.750Z,4.38
2023-04-08T14:25:49.083Z,5.47
2023-04-08T14:28:15.546Z,7.13
2023-04-08T14:30:42.839Z,5.50
2023-04-08T14:33:09.568Z,5.95
2023-04-08T14:35:36.783Z,3.20
2023-04-08T14:38:03.211Z,6.03
2023-04-08T14:40:29.540Z,5.22
2023-04-08T14:42:55.976Z,5.50
2023-04-08T14:45:22.326Z,4.43
2023-04-08T14:47:48.919Z,5.00
2023-04-08T14:50:16.135Z,4.95
2023-04-08T14:52:44.965Z,4.53
2023-04-08T14:55:11.361Z,4.63
2023-04-08T14:57:37.742Z,4.32
2023-04-08T15:00:04.336Z,3.78
2023-04-08T15:02:31.064Z,4.25
2023-04-08T15:04:57.427Z,3.72
2023-04-08T15:07:23.873Z,4.97
2023-04-08T15:09:50.360Z,4.93
2023-04-08T15:12:16.670Z,5.35
2023-04-08T15:14:43.012Z,4.15
2023-04-08T15:17:10.246Z,4.00
2023-04-08T15:19:36.608Z,3.70
2023-04-08T15:22:03.020Z,4.05
2023-04-08T15:24:29.359Z,5.72
2023-04-08T15:26:56.531Z,5.30
2023-04-08T15:29:24.073Z,3.65
2023-04-08T15:31:50.468Z,4.32
2023-04-08T15:34:16.941Z,4.32
2023-04-08T15:36:43.379Z,4.78
2023-04-08T15:39:09.676Z,4.78
2023-04-08T15:41:36.222Z,3.85
2023-04-08T15:44:02.637Z,2.58
2023-04-08T15:46:29.096Z,1.70
2023-04-08T15:48:55.510Z,1.63
2023-04-08T15:51:21.981Z,1.92
2023-04-08T15:53:50.357Z,2.40
2023-04-08T15:56:18.069Z,4.38
2023-04-08T15:58:45.219Z,1.98
2023-04-08T16:01:12.320Z,2.60
2023-04-08T16:03:38.990Z,1.90
2023-04-08T16:06:08.665Z,2.17
2023-04-08T16:08:35.162Z,2.20
2023-04-08T16:11:02.561Z,1.50
2023-04-08T16:13:30.057Z,3.13
2023-04-08T16:15:57.229Z,2.33
2023-04-08T16:18:24.047Z,2.30
2023-04-08T16:20:50.514Z,2.63
2023-04-08T16:23:17.812Z,2.40
2023-04-08T16:25:44.750Z,2.03
2023-04-08T16:28:11.167Z,2.42
2023-04-08T16:30:37.738Z,3.45
2023-04-08T16:33:04.697Z,3.28
2023-04-08T16:35:31.231Z,3.97
2023-04-08T16:37:57.539Z,3.38
2023-04-08T16:40:24.105Z,2.55
2023-04-08T16:42:50.376Z,1.55
2023-04-08T16:45:16.754Z,2.13
2023-04-08T16:47:43.474Z,1.70
2023-04-08T16:50:10.054Z,2.33
2023-04-08T16:52:36.466Z,1.70
2023-04-08T16:55:02.848Z,0.73
2023-04-08T16:57:29.266Z,0.40
2023-04-08T16:59:55.616Z,1.20
2023-04-08T17:02:22.397Z,0.57
2023-04-08T17:04:49.212Z,0.95
2023-04-08T17:07:15.551Z,0.40
2023-04-08T17:09:42.008Z,0.40
2023-04-08T17:12:08.418Z,0.40
2023-04-08T17:14:34.884Z,0.40
2023-04-08T17:17:01.343Z,0.50
2023-04-08T17:19:27.785Z,0.35
2023-04-08T17:21:54.126Z,0.60
2023-04-08T17:24:20.641Z,0.85
2023-04-08T17:26:47.947Z,0.52
2023-04-08T17:29:14.352Z,0.80
2023-04-08T17:31:41.363Z,1.10
2023-04-08T17:34:07.898Z,2.95
2023-04-08T17:36:34.220Z,2.47
2023-04-08T17:39:00.574Z,3.22
2023-04-08T17:41:39.123Z,3.42
2023-04-08T17:44:06.790Z,1.92
2023-04-08T17:46:33.402Z,2.58
2023-04-08T17:48:59.830Z,3.20
2023-04-08T17:51:26.454Z,2.85
2023-04-08T17:53:53.066Z,2.50
2023-04-08T17:56:19.501Z,2.08
2023-04-08T17:58:48.238Z,1.48
2023-04-08T18:01:15.619Z,1.35
2023-04-08T18:03:42.261Z,1.67
2023-04-08T18:06:09.181Z,1.02
2023-04-08T18:08:35.774Z,0.63
2023-04-08T18:11:05.626Z,0.60
2023-04-08T18:13:32.130Z,0.82
2023-04-08T18:15:58.538Z,0.70
2023-04-08T18:18:25.107Z,0.50
2023-04-08T18:20:51.530Z,0.50
2023-04-08T18:23:17.873Z,0.73
2023-04-08T18:25:47.750Z,0.50
2023-04-08T18:28:14.198Z,0.70
2023-04-08T18:30:43.369Z,1.30
2023-04-08T18:33:09.787Z,4.28
2023-04-08T18:35:36.870Z,4.25
2023-04-08T18:38:03.363Z,3.30
2023-04-08T18:40:29.788Z,2.42
2023-04-08T18:42:56.252Z,1.73
2023-04-08T18:45:22.631Z,1.60
2023-04-08T18:47:49.203Z,1.90
2023-04-08T18:50:16.450Z,1.02
2023-04-08T18:52:42.830Z,1.08
2023-04-08T18:55:09.222Z,2.00
2023-04-08T18:57:35.994Z,2.13
2023-04-08T19:00:02.303Z,1.60
2023-04-08T19:02:28.783Z,0.98
2023-04-08T19:04:55.885Z,1.30
2023-04-08T19:07:23.180Z,1.00
2023-04-08T19:09:49.638Z,0.70
2023-04-08T19:12:16.134Z,0.80
2023-04-08T19:14:42.515Z,0.52
2023-04-08T19:17:09.781Z,0.77
2023-04-08T19:19:36.244Z,1.13
2023-04-08T19:22:05.648Z,1.13
2023-04-08T19:24:32.554Z,1.58
2023-04-08T19:26:58.969Z,2.80
2023-04-08T19:29:26.747Z,2.63
2023-04-08T19:31:53.301Z,3.10
2023-04-08T19:34:19.724Z,1.15
2023-04-08T19:36:46.522Z,1.10
2023-04-08T19:39:12.874Z,1.05
2023-04-08T19:41:39.234Z,0.77
2023-04-08T19:44:05.951Z,1.30
2023-04-08T19:46:32.803Z,1.08
2023-04-08T19:48:59.649Z,0.93
2023-04-08T19:51:27.346Z,0.75
2023-04-08T19:53:53.849Z,0.60
2023-04-08T19:56:20.445Z,0.43
2023-04-08T19:58:46.812Z,0.70
2023-04-08T20:01:14.152Z,0.47
2023-04-08T20:03:42.068Z,0.50
2023-04-08T20:06:09.016Z,0.63
2023-04-08T20:08:35.660Z,0.93
2023-04-08T20:11:04.099Z,0.95
2023-04-08T20:13:31.038Z,1.80
2023-04-08T20:15:57.979Z,1.00
2023-04-08T20:18:24.464Z,1.50
2023-04-08T20:20:50.902Z,1.30
2023-04-08T20:23:17.449Z,1.23
2023-04-08T20:25:43.762Z,0.68
2023-04-08T20:28:10.124Z,4.32
2023-04-08T20:30:36.587Z,4.18
2023-04-08T20:33:03.139Z,3.33
2023-04-08T20:35:29.825Z,2.75
2023-04-08T20:37:56.119Z,1.98
2023-04-08T20:40:22.503Z,1.90
2023-04-08T20:42:48.809Z,3.03
2023-04-08T20:45:15.445Z,1.67
2023-04-08T20:47:41.864Z,3.05
2023-04-08T20:50:09.419Z,4.38
2023-04-08T20:52:35.851Z,4.10
2023-04-08T20:55:02.192Z,4.30
2023-04-08T20:57:28.517Z,2.85
2023-04-08T20:59:54.833Z,2.63
2023-04-08T21:02:21.765Z,1.40
2023-04-08T21:04:48.705Z,1.90
2023-04-08T21:07:15.334Z,1.58
2023-04-08T21:09:41.696Z,0.82
2023-04-08T21:12:08.103Z,1.38
2023-04-08T21:14:34.800Z,0.85
2023-04-08T21:17:01.141Z,3.33
2023-04-08T21:19:27.557Z,3.38
2023-04-08T21:21:53.886Z,3.08
2023-04-08T21:24:20.447Z,3.20
2023-04-08T21:26:46.859Z,2.53
2023-04-08T21:29:13.253Z,3.75
2023-04-08T21:31:41.199Z,4.30
2023-04-08T21:34:07.750Z,2.80
2023-04-08T21:36:34.145Z,2.22
2023-04-08T21:39:00.730Z,2.15
2023-04-08T21:41:28.399Z,2.05
2023-04-08T21:43:57.128Z,2.28
2023-04-08T21:46:23.642Z,2.20
2023-04-08T21:48:50.268Z,2.33
2023-04-08T21:51:17.394Z,3.20
2023-04-08T21:53:44.636Z,4.03
2023-04-08T21:56:11.068Z,10.68
2023-04-08T21:58:37.385Z,13.98
2023-04-08T22:01:06.880Z,10.82
2023-04-08T22:03:33.600Z,7.30
2023-04-08T22:06:00.057Z,7.32
2023-04-08T22:08:26.549Z,4.75
2023-04-08T22:10:53.121Z,3.47
2023-04-08T22:13:20.590Z,2.95
2023-04-08T22:15:47.082Z,2.63
2023-04-08T22:18:13.413Z,1.70
2023-04-08T22:20:39.772Z,1.30
2023-04-08T22:23:06.086Z,1.10
2023-04-08T22:25:32.391Z,1.80
2023-04-08T22:27:59.024Z,1.00
2023-04-08T22:30:25.313Z,1.40
2023-04-08T22:32:51.748Z,0.88
2023-04-08T22:35:18.234Z,0.88
2023-04-08T22:37:44.596Z,0.73
2023-04-08T22:40:11.057Z,0.50
2023-04-08T22:42:37.369Z,1.13
2023-04-08T22:45:05.029Z,2.05
2023-04-08T22:47:31.517Z,1.15
2023-04-08T22:49:57.909Z,0.80
2023-04-08T22:52:24.280Z,1.48
2023-04-08T22:54:50.678Z,1.88
2023-04-08T22:57:17.033Z,1.10
2023-04-08T22:59:43.428Z,1.40
2023-04-08T23:02:09.866Z,1.00
2023-04-08T23:04:36.239Z,1.20
2023-04-08T23:07:02.624Z,1.67
2023-04-08T23:09:29.019Z,1.08
2023-04-08T23:11:55.968Z,1.13
2023-04-08T23:14:22.310Z,0.60
2023-04-08T23:16:48.746Z,0.95
2023-04-08T23:19:15.400Z,0.95
2023-04-08T23:21:41.862Z,1.17
2023-04-08T23:24:08.384Z,1.35
2023-04-08T23:26:34.784Z,0.55
2023-04-08T23:29:01.183Z,1.20
2023-04-08T23:31:27.665Z,1.00
2023-04-08T23:33:53.998Z,1.00
2023-04-08T23:36:20.362Z,1.02
2023-04-08T23:38:46.753Z,1.90
2023-04-08T23:41:13.069Z,2.25
2023-04-08T23:43:39.486Z,1.55
2023-04-08T23:46:05.887Z,1.52
2023-04-08T23:48:32.207Z,1.70
2023-04-08T23:50:58.614Z,1.58
2023-04-08T23:53:24.997Z,1.33
2023-04-08T23:55:51.399Z,2.72
2023-04-08T23:58:17.842Z,2.03
